createdAt,value
2023-11-08T00:00:18.183Z,100090.56
2023-11-08T00:02:44.927Z,100072.44
2023-11-08T00:05:11.654Z,100076.53
2023-11-08T00:07:41.312Z,100085.44
2023-11-08T00:10:13.818Z,100083.72
2023-11-08T00:12:40.991Z,100088.84
2023-11-08T00:15:12.169Z,100081.22
2023-11-08T00:17:39.341Z,100081.75
2023-11-08T00:20:11.114Z,100076.97
2023-11-08T00:22:40.700Z,100085.91
2023-11-08T00:25:07.572Z,100078.78
2023-11-08T00:27:34.399Z,100083.84
2023-11-08T00:30:07.240Z,100075.34
2023-11-08T00:32:34.056Z,100078.56
2023-11-08T00:35:00.824Z,100083.78
2023-11-08T00:37:27.706Z,100082.50
2023-11-08T00:39:54.344Z,100077.31
2023-11-08T00:42:22.753Z,100084.31
2023-11-08T00:44:49.457Z,100067.75
2023-11-08T00:47:19.502Z,100075.13
2023-11-08T00:49:48.634Z,100065.72
2023-11-08T00:52:15.915Z,100069.06
2023-11-08T00:54:42.678Z,100074.00
2023-11-08T00:57:09.624Z,100074.66
2023-11-08T00:59:39.767Z,100079.34
2023-11-08T01:02:09.840Z,100069.34
2023-11-08T01:04:36.899Z,100073.53
2023-11-08T01:07:08.959Z,100062.25
2023-11-08T01:09:36.159Z,100060.38
2023-11-08T01:12:04.591Z,100071.44
2023-11-08T01:14:31.434Z,100061.97
2023-11-08T01:16:58.103Z,100064.47
2023-11-08T01:19:26.247Z,100061.97
2023-11-08T01:21:53.465Z,100065.34
2023-11-08T01:24:20.981Z,100061.06
2023-11-08T01:26:51.663Z,100061.16
2023-11-08T01:29:18.353Z,100060.19
2023-11-08T01:31:45.715Z,100068.25
2023-11-08T01:34:13.290Z,100062.63
2023-11-08T01:36:40.093Z,100063.72
2023-11-08T01:39:10.049Z,100066.84
2023-11-08T01:41:50.075Z,100064.09
2023-11-08T01:44:19.557Z,100058.34
2023-11-08T01:46:54.706Z,100062.81
2023-11-08T01:49:22.012Z,100054.03
2023-11-08T01:51:51.894Z,100051.94
2023-11-08T01:54:29.246Z,100053.84
2023-11-08T01:56:56.305Z,100056.09
2023-11-08T01:59:27.472Z,100057.31
2023-11-08T02:01:58.669Z,100059.88
2023-11-08T02:04:26.062Z,100050.81
2023-11-08T02:06:54.485Z,100058.91
2023-11-08T02:09:21.554Z,100056.09
2023-11-08T02:11:54.690Z,100059.53
2023-11-08T02:14:23.659Z,100064.16
2023-11-08T02:16:50.267Z,100061.13
2023-11-08T02:19:16.963Z,100054.03
2023-11-08T02:21:44.207Z,100057.31
2023-11-08T02:24:24.412Z,100060.22
2023-11-08T02:26:53.179Z,100061.13
2023-11-08T02:29:24.083Z,100052.69
2023-11-08T02:31:53.776Z,100052.38
2023-11-08T02:34:20.814Z,100055.56
2023-11-08T02:36:50.708Z,100049.81
2023-11-08T02:39:17.562Z,100043.47
2023-11-08T02:41:44.271Z,100047.16
2023-11-08T02:44:14.223Z,100043.47
2023-11-08T02:46:45.965Z,100047.09
2023-11-08T02:49:16.166Z,100054.34
2023-11-08T02:51:44.600Z,100055.47
2023-11-08T02:56:51.899Z,100045.97
2023-11-08T02:59:18.548Z,100054.19
2023-11-08T03:01:45.327Z,100056.63
2023-11-08T03:04:12.334Z,100056.78
2023-11-08T03:06:44.215Z,100054.81
2023-11-08T03:09:12.240Z,100060.13
2023-11-08T03:11:41.844Z,100061.66
2023-11-08T03:14:08.635Z,100056.91
2023-11-08T03:16:35.810Z,100058.72
2023-11-08T03:19:02.955Z,100061.50
2023-11-08T03:21:29.613Z,100065.97
2023-11-08T03:23:56.355Z,100062.72
2023-11-08T03:26:23.320Z,100071.81
2023-11-08T03:28:50.233Z,100069.25
2023-11-08T03:31:18.432Z,100066.13
2023-11-08T03:33:45.272Z,100081.31
2023-11-08T03:36:14.828Z,100068.38
2023-11-08T03:38:45.238Z,100069.97
2023-11-08T03:41:12.041Z,100069.97
2023-11-08T03:43:39.180Z,100066.25
2023-11-08T03:46:05.816Z,100071.94
2023-11-08T03:48:32.631Z,100065.13
2023-11-08T03:51:02.688Z,100067.25
2023-11-08T03:53:29.940Z,100075.34
2023-11-08T03:55:59.744Z,100077.63
2023-11-08T03:58:26.384Z,100073.94
2023-11-08T04:00:53.052Z,100080.72
2023-11-08T04:03:23.049Z,100080.63
2023-11-08T04:05:49.730Z,100085.59
2023-11-08T04:08:18.864Z,100082.09
2023-11-08T04:10:45.536Z,100089.22
2023-11-08T04:13:14.400Z,100083.75
2023-11-08T04:15:41.094Z,100094.75
2023-11-08T04:18:08.221Z,100094.97
2023-11-08T04:20:39.701Z,100089.22
2023-11-08T04:23:09.718Z,100093.72
2023-11-08T04:25:38.370Z,100090.16
2023-11-08T04:28:05.135Z,100088.09
2023-11-08T04:30:31.939Z,100089.94
2023-11-08T04:33:01.107Z,100093.41
2023-11-08T04:35:30.203Z,100091.97
2023-11-08T04:37:58.539Z,100101.16
2023-11-08T04:40:29.293Z,100100.03
2023-11-08T04:42:58.598Z,100100.31
2023-11-08T04:45:26.033Z,100102.00
2023-11-08T04:47:52.753Z,100102.00
2023-11-08T04:50:21.902Z,100104.13
2023-11-08T04:52:50.709Z,100100.97
2023-11-08T04:55:17.543Z,100101.34
2023-11-08T04:57:50.031Z,100111.13
2023-11-08T05:00:19.573Z,100113.44
2023-11-08T05:02:49.221Z,100102.16
2023-11-08T05:05:16.443Z,100115.22
2023-11-08T05:07:48.448Z,100110.06
2023-11-08T05:10:15.257Z,100110.97
2023-11-08T05:12:51.290Z,100112.97
2023-11-08T05:15:23.077Z,100113.22
2023-11-08T05:17:49.895Z,100111.13
2023-11-08T05:20:18.859Z,100116.97
2023-11-08T05:22:48.245Z,100112.34
2023-11-08T05:25:16.592Z,100121.13
2023-11-08T05:27:46.062Z,100120.09
2023-11-08T05:30:12.796Z,100116.13
2023-11-08T05:35:24.712Z,100119.88
2023-11-08T05:37:51.869Z,100115.06
2023-11-08T05:40:19.597Z,100112.19
2023-11-08T05:42:46.278Z,100125.59
2023-11-08T05:45:13.002Z,100120.25
2023-11-08T05:47:45.702Z,100129.06
2023-11-08T05:50:16.932Z,100130.63
2023-11-08T05:52:45.226Z,100137.75
2023-11-08T05:55:14.153Z,100132.91
2023-11-08T05:57:49.969Z,100133.28
2023-11-08T06:00:19.905Z,100138.16
2023-11-08T06:02:50.535Z,100133.28
2023-11-08T06:05:17.455Z,100141.88
2023-11-08T06:07:45.672Z,100136.59
2023-11-08T06:10:12.620Z,100143.31
2023-11-08T06:12:39.319Z,100148.19
2023-11-08T06:15:11.951Z,100146.47
2023-11-08T06:17:39.200Z,100144.56
2023-11-08T06:20:10.018Z,100145.44
2023-11-08T06:22:45.518Z,100144.75
2023-11-08T06:25:12.220Z,100150.81
2023-11-08T06:27:38.909Z,100148.47
2023-11-08T06:30:05.977Z,100147.75
2023-11-08T06:32:32.648Z,100164.28
2023-11-08T06:35:04.124Z,100157.31
2023-11-08T06:37:31.293Z,100169.16
2023-11-08T06:39:58.455Z,100173.78
2023-11-08T06:42:25.415Z,100160.59
2023-11-08T06:44:56.158Z,100166.16
2023-11-08T06:47:23.026Z,100163.09
2023-11-08T06:49:52.744Z,100162.97
2023-11-08T06:52:19.412Z,100172.59
2023-11-08T06:54:46.279Z,100172.75
2023-11-08T06:57:17.798Z,100177.47
2023-11-08T06:59:49.921Z,100171.75
2023-11-08T07:02:18.890Z,100174.41
2023-11-08T07:04:45.984Z,100177.09
2023-11-08T07:07:13.067Z,100188.00
2023-11-08T07:09:39.877Z,100191.88
2023-11-08T07:12:08.272Z,100195.31
2023-11-08T07:14:38.284Z,100191.88
2023-11-08T07:17:06.637Z,100192.06
2023-11-08T07:19:34.174Z,100195.63
2023-11-08T07:22:04.839Z,100205.47
2023-11-08T07:24:54.948Z,100195.63
2023-11-08T07:27:26.765Z,100210.19
2023-11-08T07:29:54.792Z,100206.59
2023-11-08T07:32:21.374Z,100209.16
2023-11-08T07:34:49.333Z,100209.16
2023-11-08T07:37:23.397Z,100212.19
2023-11-08T07:39:50.111Z,100216.81
2023-11-08T07:42:17.249Z,100228.44
2023-11-08T07:44:47.985Z,100220.25
2023-11-08T07:47:15.291Z,100223.84
2023-11-08T07:49:42.071Z,100228.97
2023-11-08T07:52:09.157Z,100225.53
2023-11-08T07:57:16.694Z,100226.47
2023-11-08T07:59:43.477Z,100225.16
2023-11-08T08:02:15.519Z,100225.59
2023-11-08T08:04:42.392Z,100238.13
2023-11-08T08:07:15.308Z,100233.03
2023-11-08T08:09:42.042Z,100243.91
2023-11-08T08:12:08.679Z,100231.34
2023-11-08T08:14:36.773Z,100236.63
2023-11-08T08:17:06.361Z,100237.00
2023-11-08T08:19:33.526Z,100235.97
2023-11-08T08:22:02.510Z,100233.28
2023-11-08T08:24:29.677Z,100243.09
2023-11-08T08:27:00.598Z,100236.16
2023-11-08T08:29:28.609Z,100246.00
2023-11-08T08:31:55.259Z,100250.03
2023-11-08T08:34:28.773Z,100248.38
2023-11-08T08:36:58.614Z,100260.00
2023-11-08T08:39:29.019Z,100254.16
2023-11-08T08:41:56.596Z,100251.69
2023-11-08T08:44:23.535Z,100256.81
2023-11-08T08:46:51.095Z,100258.13
2023-11-08T08:49:20.043Z,100252.88
2023-11-08T08:51:51.641Z,100259.31
2023-11-08T08:54:22.505Z,100257.06
2023-11-08T08:56:52.585Z,100252.56
2023-11-08T08:59:19.254Z,100259.06
2023-11-08T09:01:45.824Z,100255.81
2023-11-08T09:04:15.554Z,100261.34
2023-11-08T09:06:45.081Z,100274.19
2023-11-08T09:09:14.424Z,100270.63
2023-11-08T09:11:42.163Z,100275.25
2023-11-08T09:14:09.508Z,100277.22
2023-11-08T09:16:47.038Z,100272.09
2023-11-08T09:22:07.760Z,100275.22
2023-11-08T09:24:34.439Z,100285.66
2023-11-08T09:27:06.117Z,100291.09
2023-11-08T09:29:33.961Z,100305.53
2023-11-08T09:32:02.174Z,100302.34
2023-11-08T09:34:29.347Z,100306.34
2023-11-08T09:36:58.089Z,100304.75
2023-11-08T09:39:25.893Z,100308.06
2023-11-08T09:41:53.633Z,100304.38
2023-11-08T09:44:22.110Z,100304.75
2023-11-08T09:46:50.298Z,100313.97
2023-11-08T09:49:17.195Z,100313.31
2023-11-08T09:51:46.836Z,100315.97
2023-11-08T09:54:14.021Z,100314.16
2023-11-08T09:56:57.076Z,100312.66
2023-11-08T09:59:27.332Z,100318.69
2023-11-08T10:02:12.899Z,100318.69
2023-11-08T10:04:59.282Z,100300.53
2023-11-08T10:07:26.511Z,100313.66
2023-11-08T10:09:54.380Z,100313.69
2023-11-08T10:12:21.719Z,100309.66
2023-11-08T10:14:58.467Z,100307.53
2023-11-08T10:19:29.823Z,100312.09
2023-11-08T10:20:28.252Z,100317.59
2023-11-08T10:22:55.873Z,100314.50
2023-11-08T10:25:27.053Z,100312.44
2023-11-08T10:28:02.817Z,100312.63
2023-11-08T10:30:33.021Z,100316.53
2023-11-08T10:33:22.570Z,100313.56
2023-11-08T10:35:50.972Z,100313.06
2023-11-08T10:38:19.983Z,100315.97
2023-11-08T10:40:50.426Z,100307.09
2023-11-08T10:43:24.911Z,100305.38
2023-11-08T10:45:51.624Z,100296.41
2023-11-08T10:48:21.065Z,100301.25
2023-11-08T10:50:52.366Z,100295.50
2023-11-08T10:53:22.033Z,100300.25
2023-11-08T10:55:49.651Z,100305.81
2023-11-08T10:58:16.861Z,100298.31
2023-11-08T11:00:45.466Z,100297.25
2023-11-08T11:03:15.743Z,100303.06
2023-11-08T11:05:47.068Z,100302.22
2023-11-08T11:08:20.099Z,100302.16
2023-11-08T11:10:53.348Z,100306.81
2023-11-08T11:13:27.413Z,100298.53
2023-11-08T11:16:07.959Z,100302.00
2023-11-08T11:18:38.321Z,100297.06
2023-11-08T11:21:21.270Z,100295.66
2023-11-08T11:23:51.029Z,100290.91
2023-11-08T11:26:40.178Z,100281.84
2023-11-08T11:29:08.696Z,100297.34
2023-11-08T11:31:39.935Z,100278.34
2023-11-08T11:34:21.908Z,100283.25
2023-11-08T11:37:07.875Z,100289.19
2023-11-08T11:42:18.172Z,100286.88
2023-11-08T11:45:04.045Z,100277.75
2023-11-08T11:47:32.011Z,100284.41
2023-11-08T11:50:11.773Z,100284.16
2023-11-08T11:52:38.914Z,100279.44
2023-11-08T11:55:12.243Z,100280.59
2023-11-08T11:57:41.472Z,100276.59
2023-11-08T12:00:12.267Z,100273.38
2023-11-08T12:02:49.438Z,100276.00
2023-11-08T12:05:16.307Z,100277.47
2023-11-08T12:07:49.054Z,100282.88
2023-11-08T12:10:22.499Z,100281.03
2023-11-08T12:12:51.228Z,100285.72
2023-11-08T12:15:23.815Z,100287.00
2023-11-08T12:17:52.904Z,100291.81
2023-11-08T12:20:26.171Z,100279.50
2023-11-08T12:22:55.827Z,100282.72
2023-11-08T12:25:25.366Z,100281.44
2023-11-08T12:27:58.610Z,100281.41
2023-11-08T12:30:27.819Z,100276.03
2023-11-08T12:33:00.002Z,100272.53
2023-11-08T12:35:27.305Z,100272.56
2023-11-08T12:37:59.067Z,100287.56
2023-11-08T12:40:27.891Z,100279.22
2023-11-08T12:43:55.958Z,100278.91
2023-11-08T12:46:35.603Z,100287.78
2023-11-08T12:49:00.155Z,100285.84
2023-11-08T12:51:33.848Z,100276.09
2023-11-08T12:54:03.264Z,100282.31
2023-11-08T12:56:40.443Z,100284.53
2023-11-08T12:59:17.502Z,100276.22
2023-11-08T13:01:50.695Z,100269.66
2023-11-08T13:04:20.093Z,100272.94
2023-11-08T13:06:49.150Z,100277.66
2023-11-08T13:09:19.266Z,100277.94
2023-11-08T13:11:46.298Z,100278.66
2023-11-08T13:14:13.650Z,100281.81
2023-11-08T13:16:43.556Z,100273.84
2023-11-08T13:19:12.546Z,100275.47
2023-11-08T13:21:41.800Z,100278.03
2023-11-08T13:24:10.912Z,100272.84
2023-11-08T13:26:42.735Z,100270.47
2023-11-08T13:29:16.593Z,100262.88
2023-11-08T13:31:43.422Z,100263.91
2023-11-08T13:34:10.233Z,100260.28
2023-11-08T13:36:39.076Z,100267.06
2023-11-08T13:39:10.614Z,100260.44
2023-11-08T13:41:37.290Z,100258.03
2023-11-08T13:44:04.072Z,100254.88
2023-11-08T13:46:34.033Z,100246.59
2023-11-08T13:49:02.057Z,100248.66
2023-11-08T13:51:31.854Z,100247.13
2023-11-08T13:53:58.588Z,100246.00
2023-11-08T13:56:25.450Z,100244.28
2023-11-08T13:58:52.214Z,100249.78
2023-11-08T14:01:30.682Z,100247.09
2023-11-08T14:03:59.424Z,100241.47
2023-11-08T14:06:32.652Z,100246.50
2023-11-08T14:09:04.544Z,100237.25
2023-11-08T14:11:43.503Z,100232.75
2023-11-08T14:14:10.180Z,100234.19
2023-11-08T14:16:37.961Z,100234.00
2023-11-08T14:19:06.310Z,100233.50
2023-11-08T14:21:37.354Z,100234.66
2023-11-08T14:24:04.214Z,100232.41
2023-11-08T14:26:35.506Z,100232.78
2023-11-08T14:29:03.373Z,100240.25
2023-11-08T14:31:30.543Z,100242.25
2023-11-08T14:34:01.669Z,100245.56
2023-11-08T14:36:55.380Z,100251.63
2023-11-08T14:39:27.237Z,100250.72
2023-11-08T14:42:29.862Z,100252.94
2023-11-08T14:44:41.860Z,100250.88
2023-11-08T14:47:08.526Z,100258.59
2023-11-08T14:49:35.813Z,100250.03
2023-11-08T14:52:03.514Z,100252.69
2023-11-08T14:54:30.262Z,100251.94
2023-11-08T14:56:58.937Z,100246.06
2023-11-08T14:59:27.522Z,100250.38
2023-11-08T15:01:58.982Z,100241.97
2023-11-08T15:04:26.711Z,100244.28
2023-11-08T15:06:53.437Z,100240.53
2023-11-08T15:09:53.047Z,100234.78
2023-11-08T15:12:11.995Z,100236.34
2023-11-08T15:14:38.932Z,100234.41
2023-11-08T15:17:05.714Z,100236.50
2023-11-08T15:19:34.816Z,100232.94
2023-11-08T15:22:03.999Z,100237.88
2023-11-08T15:24:33.614Z,100234.88
2023-11-08T15:27:01.344Z,100231.34
2023-11-08T15:29:31.317Z,100232.25
2023-11-08T15:32:01.783Z,100226.38
2023-11-08T15:34:29.460Z,100229.59
2023-11-08T15:36:58.967Z,100221.13
2023-11-08T15:39:26.488Z,100222.22
2023-11-08T15:41:55.718Z,100231.59
2023-11-08T15:44:25.525Z,100219.28
2023-11-08T15:46:53.102Z,100220.06
2023-11-08T15:49:22.638Z,100220.09
2023-11-08T15:51:52.728Z,100219.59
2023-11-08T15:54:19.585Z,100218.59
2023-11-08T15:56:49.321Z,100208.72
2023-11-08T15:59:17.190Z,100209.22
2023-11-08T16:01:47.081Z,100208.88
2023-11-08T16:04:17.056Z,100207.75
2023-11-08T16:06:44.031Z,100207.59
2023-11-08T16:09:12.409Z,100206.19
2023-11-08T16:11:40.686Z,100204.63
2023-11-08T16:14:08.093Z,100198.06
2023-11-08T16:16:42.845Z,100203.78
2023-11-08T16:19:13.531Z,100202.59
2023-11-08T16:21:40.428Z,100206.53
2023-11-08T16:24:30.216Z,100203.47
2023-11-08T16:26:56.865Z,100196.16
2023-11-08T16:29:50.848Z,100201.41
2023-11-08T16:32:34.975Z,100197.03
2023-11-08T16:35:01.690Z,100189.59
2023-11-08T16:37:28.498Z,100193.53
2023-11-08T16:39:55.232Z,100185.19
2023-11-08T16:42:23.368Z,100192.31
2023-11-08T16:44:50.620Z,100189.75
2023-11-08T16:47:17.579Z,100189.47
2023-11-08T16:49:47.662Z,100197.19
2023-11-08T16:52:15.538Z,100188.78
2023-11-08T16:54:46.088Z,100184.66
2023-11-08T16:57:12.784Z,100181.34
2023-11-08T16:59:40.658Z,100182.81
2023-11-08T17:02:07.721Z,100183.34
2023-11-08T17:04:41.556Z,100188.34
2023-11-08T17:07:08.592Z,100187.31
2023-11-08T17:09:36.683Z,100189.34
2023-11-08T17:12:06.263Z,100182.09
2023-11-08T17:14:38.159Z,100175.88
2023-11-08T17:17:13.598Z,100189.19
2023-11-08T17:19:48.718Z,100184.72
2023-11-08T17:22:18.313Z,100177.47
2023-11-08T17:24:50.686Z,100189.59
2023-11-08T17:27:18.587Z,100185.03
2023-11-08T17:29:48.773Z,100188.47
2023-11-08T17:32:18.552Z,100191.47
2023-11-08T17:34:48.712Z,100188.19
2023-11-08T17:37:17.685Z,100189.28
2023-11-08T17:39:44.418Z,100182.84
2023-11-08T17:42:11.351Z,100178.31
2023-11-08T17:44:38.078Z,100175.69
2023-11-08T17:47:06.479Z,100165.41
2023-11-08T17:49:33.191Z,100172.75
2023-11-08T17:52:05.547Z,100169.41
2023-11-08T17:54:33.903Z,100167.25
2023-11-08T17:57:01.899Z,100165.16
2023-11-08T17:59:32.341Z,100169.59
2023-11-08T18:01:59.486Z,100162.84
2023-11-08T18:04:33.657Z,100174.84
2023-11-08T18:07:06.230Z,100173.25
2023-11-08T18:09:35.978Z,100176.66
2023-11-08T18:12:03.952Z,100169.09
2023-11-08T18:14:33.314Z,100172.03
2023-11-08T18:17:00.016Z,100168.34
2023-11-08T18:19:28.991Z,100167.41
2023-11-08T18:21:55.758Z,100155.84
2023-11-08T18:24:30.118Z,100157.84
2023-11-08T18:26:59.057Z,100154.84
2023-11-08T18:29:33.165Z,100150.88
2023-11-08T18:32:05.857Z,100144.41
2023-11-08T18:34:33.337Z,100153.28
2023-11-08T18:37:10.540Z,100149.72
2023-11-08T18:39:39.499Z,100152.28
2023-11-08T18:42:06.272Z,100152.38
2023-11-08T18:44:36.666Z,100146.00
2023-11-08T18:47:04.720Z,100151.28
2023-11-08T18:49:37.572Z,100140.41
2023-11-08T18:52:18.744Z,100136.09
2023-11-08T18:54:47.202Z,100135.66
2023-11-08T18:57:13.898Z,100134.19
2023-11-08T18:59:41.786Z,100121.94
2023-11-08T19:02:11.944Z,100115.94
2023-11-08T19:04:38.778Z,100118.41
2023-11-08T19:07:08.394Z,100118.41
2023-11-08T19:09:38.221Z,100113.13
2023-11-08T19:12:05.367Z,100120.56
2023-11-08T19:14:35.664Z,100116.50
2023-11-08T19:17:05.713Z,100111.88
2023-11-08T19:19:33.216Z,100115.44
2023-11-08T19:22:01.868Z,100109.81
2023-11-08T19:24:28.794Z,100105.78
2023-11-08T19:26:55.564Z,100095.94
2023-11-08T19:29:22.268Z,100100.94
2023-11-08T19:31:50.932Z,100098.72
2023-11-08T19:34:19.083Z,100093.22
2023-11-08T19:36:53.692Z,100097.34
2023-11-08T19:39:22.710Z,100099.59
2023-11-08T19:41:50.508Z,100089.72
2023-11-08T19:44:19.973Z,100088.41
2023-11-08T19:46:47.135Z,100089.72
2023-11-08T19:49:14.035Z,100082.78
2023-11-08T19:51:41.131Z,100079.97
2023-11-08T19:54:08.016Z,100070.16
2023-11-08T19:56:35.913Z,100066.88
2023-11-08T19:59:04.565Z,100070.84
2023-11-08T20:01:31.323Z,100066.44
2023-11-08T20:03:58.074Z,100071.03
2023-11-08T20:06:32.143Z,100062.03
2023-11-08T20:08:58.895Z,100068.44
2023-11-08T20:11:30.247Z,100070.47
2023-11-08T20:14:00.455Z,100077.53
2023-11-08T20:16:28.258Z,100071.25
2023-11-08T20:18:55.127Z,100070.88
2023-11-08T20:21:25.379Z,100070.16
2023-11-08T20:23:53.639Z,100068.47
2023-11-08T20:26:21.575Z,100063.31
2023-11-08T20:28:53.954Z,100067.63
2023-11-08T20:31:20.816Z,100055.63
2023-11-08T20:33:47.514Z,100054.13
2023-11-08T20:36:20.201Z,100049.75
2023-11-08T20:38:47.225Z,100032.72
2023-11-08T20:41:15.189Z,100040.63
2023-11-08T20:43:42.337Z,100033.50
2023-11-08T20:46:13.984Z,100029.69
2023-11-08T20:48:49.747Z,100027.22
2023-11-08T20:51:19.017Z,100025.06
2023-11-08T20:53:45.754Z,100018.06
2023-11-08T20:56:13.085Z,100010.50
2023-11-08T20:58:43.028Z,100007.50
2023-11-08T21:01:09.866Z,100007.09
2023-11-08T21:03:36.600Z,100005.66
2023-11-08T21:06:03.521Z,99998.81
2023-11-08T21:08:30.593Z,99991.81
2023-11-08T21:10:57.377Z,99988.81
2023-11-08T21:13:27.206Z,99981.69
2023-11-08T21:15:54.660Z,99978.41
2023-11-08T21:18:23.586Z,99974.56
2023-11-08T21:20:53.142Z,99972.16
2023-11-08T21:23:19.913Z,99975.81
2023-11-08T21:25:50.340Z,99963.16
2023-11-08T21:28:24.142Z,99968.84
2023-11-08T21:30:52.074Z,99961.84
2023-11-08T21:33:20.760Z,99954.22
2023-11-08T21:35:48.155Z,99952.22
2023-11-08T21:38:16.934Z,99953.28
2023-11-08T21:40:51.315Z,99945.81
2023-11-08T21:43:19.290Z,99940.03
2023-11-08T21:45:51.474Z,99935.94
2023-11-08T21:48:23.427Z,99932.75
2023-11-08T21:50:57.737Z,99932.88
2023-11-08T21:53:25.602Z,99931.03
2023-11-08T21:55:53.663Z,99927.31
2023-11-08T21:58:23.668Z,99927.59
2023-11-08T22:00:53.809Z,99916.75
2023-11-08T22:03:21.422Z,99916.16
2023-11-08T22:05:51.603Z,99912.75
2023-11-08T22:08:19.040Z,99898.81
2023-11-08T22:10:48.977Z,99903.19
2023-11-08T22:13:16.055Z,99908.13
2023-11-08T22:15:42.887Z,99909.06
2023-11-08T22:18:09.726Z,99916.25
2023-11-08T22:20:36.772Z,99909.75
2023-11-08T22:23:04.723Z,99906.84
2023-11-08T22:25:31.784Z,99908.41
2023-11-08T22:28:00.454Z,99907.47
2023-11-08T22:30:27.394Z,99898.72
2023-11-08T22:32:54.251Z,99907.03
2023-11-08T22:35:25.740Z,99898.31
2023-11-08T22:37:55.130Z,99895.44
2023-11-08T22:40:21.990Z,99898.56
2023-11-08T22:42:48.708Z,99894.09
2023-11-08T22:45:36.212Z,99884.25
2023-11-08T22:48:08.548Z,99881.63
2023-11-08T22:50:35.386Z,99897.84
2023-11-08T22:53:06.144Z,99882.81
2023-11-08T22:55:33.986Z,99881.41
2023-11-08T22:58:01.808Z,99887.53
2023-11-08T23:00:34.375Z,99874.84
2023-11-08T23:03:03.521Z,99885.41
2023-11-08T23:05:35.854Z,99871.88
2023-11-08T23:08:05.906Z,99870.22
2023-11-08T23:10:32.689Z,99868.09
2023-11-08T23:13:07.275Z,99868.59
2023-11-08T23:15:41.258Z,99866.72
2023-11-08T23:18:08.979Z,99859.59
2023-11-08T23:20:40.835Z,99869.56
2023-11-08T23:23:09.992Z,99867.72
2023-11-08T23:25:38.088Z,99864.88
2023-11-08T23:28:04.756Z,99870.66
2023-11-08T23:30:51.766Z,99858.31
2023-11-08T23:33:21.107Z,99851.84
2023-11-08T23:35:47.744Z,99846.06
2023-11-08T23:38:15.586Z,99848.91
2023-11-08T23:40:43.397Z,99842.34
2023-11-08T23:43:10.503Z,99838.06
2023-11-08T23:45:37.229Z,99840.91
2023-11-08T23:48:10.079Z,99836.50
2023-11-08T23:50:38.312Z,99827.22
2023-11-08T23:53:05.285Z,99832.78
2023-11-08T23:55:34.367Z,99823.66
2023-11-08T23:58:01.112Z,99814.91
